sensor_id;sensor_type;location;lat;lon;timestamp;temperature;humidity
48208;DHT22;33997;53.278;9.708;2023-09-08T00:00:40;19.00;71.00
48208;DHT22;33997;53.278;9.708;2023-09-08T00:03:06;19.00;71.20
48208;DHT22;33997;53.278;9.708;2023-09-08T00:05:31;18.80;72.20
48208;DHT22;33997;53.278;9.708;2023-09-08T00:07:57;18.80;72.10
48208;DHT22;33997;53.278;9.708;2023-09-08T00:10:23;18.80;72.00
48208;DHT22;33997;53.278;9.708;2023-09-08T00:12:49;18.80;71.60
48208;DHT22;33997;53.278;9.708;2023-09-08T00:15:14;18.90;71.40
48208;DHT22;33997;53.278;9.708;2023-09-08T00:17:40;18.80;71.80
48208;DHT22;33997;53.278;9.708;2023-09-08T00:20:06;18.90;71.70
48208;DHT22;33997;53.278;9.708;2023-09-08T00:22:35;18.90;71.50
48208;DHT22;33997;53.278;9.708;2023-09-08T00:25:01;18.90;71.70
48208;DHT22;33997;53.278;9.708;2023-09-08T00:27:27;18.90;71.80
48208;DHT22;33997;53.278;9.708;2023-09-08T00:29:52;18.70;72.20
48208;DHT22;33997;53.278;9.708;2023-09-08T00:32:18;18.60;73.00
48208;DHT22;33997;53.278;9.708;2023-09-08T00:34:43;18.50;72.90
48208;DHT22;33997;53.278;9.708;2023-09-08T00:37:09;18.60;72.60
48208;DHT22;33997;53.278;9.708;2023-09-08T00:39:35;18.60;72.60
48208;DHT22;33997;53.278;9.708;2023-09-08T00:42:01;18.40;73.60
48208;DHT22;33997;53.278;9.708;2023-09-08T00:44:27;18.50;73.10
48208;DHT22;33997;53.278;9.708;2023-09-08T00:46:52;18.50;73.30
48208;DHT22;33997;53.278;9.708;2023-09-08T00:49:19;18.50;73.10
48208;DHT22;33997;53.278;9.708;2023-09-08T00:51:45;18.50;73.20
48208;DHT22;33997;53.278;9.708;2023-09-08T00:54:11;18.40;73.70
48208;DHT22;33997;53.278;9.708;2023-09-08T00:56:37;18.40;73.80
48208;DHT22;33997;53.278;9.708;2023-09-08T00:59:04;18.30;73.90
48208;DHT22;33997;53.278;9.708;2023-09-08T01:01:30;18.10;74.80
48208;DHT22;33997;53.278;9.708;2023-09-08T01:03:56;18.10;74.60
48208;DHT22;33997;53.278;9.708;2023-09-08T01:06:22;18.20;74.70
48208;DHT22;33997;53.278;9.708;2023-09-08T01:08:48;18.20;74.60
48208;DHT22;33997;53.278;9.708;2023-09-08T01:11:13;18.00;75.10
48208;DHT22;33997;53.278;9.708;2023-09-08T01:13:39;18.00;75.30
48208;DHT22;33997;53.278;9.708;2023-09-08T01:16:04;17.80;75.90
48208;DHT22;33997;53.278;9.708;2023-09-08T01:18:30;17.90;76.20
48208;DHT22;33997;53.278;9.708;2023-09-08T01:21:34;18.00;75.70
48208;DHT22;33997;53.278;9.708;2023-09-08T01:27:02;18.00;75.20
48208;DHT22;33997;53.278;9.708;2023-09-08T01:29:29;18.00;75.30
48208;DHT22;33997;53.278;9.708;2023-09-08T01:31:55;18.00;75.40
48208;DHT22;33997;53.278;9.708;2023-09-08T01:34:21;18.00;75.90
48208;DHT22;33997;53.278;9.708;2023-09-08T01:36:47;18.00;75.30
48208;DHT22;33997;53.278;9.708;2023-09-08T01:39:13;18.00;75.50
48208;DHT22;33997;53.278;9.708;2023-09-08T01:41:38;18.00;75.50
48208;DHT22;33997;53.278;9.708;2023-09-08T01:44:04;17.90;76.00
48208;DHT22;33997;53.278;9.708;2023-09-08T01:46:33;17.80;76.30
48208;DHT22;33997;53.278;9.708;2023-09-08T01:48:59;17.70;76.60
48208;DHT22;33997;53.278;9.708;2023-09-08T01:51:24;17.70;76.90
48208;DHT22;33997;53.278;9.708;2023-09-08T01:53:50;17.70;76.30
48208;DHT22;33997;53.278;9.708;2023-09-08T01:56:15;17.70;76.60
48208;DHT22;33997;53.278;9.708;2023-09-08T01:58:41;17.60;77.10
48208;DHT22;33997;53.278;9.708;2023-09-08T02:01:06;17.70;76.70
48208;DHT22;33997;53.278;9.708;2023-09-08T02:03:32;17.70;76.80
48208;DHT22;33997;53.278;9.708;2023-09-08T02:05:58;17.60;77.20
48208;DHT22;33997;53.278;9.708;2023-09-08T02:08:23;17.50;77.30
48208;DHT22;33997;53.278;9.708;2023-09-08T02:10:49;17.60;77.30
48208;DHT22;33997;53.278;9.708;2023-09-08T02:13:14;17.40;78.30
48208;DHT22;33997;53.278;9.708;2023-09-08T02:15:40;17.40;78.10
48208;DHT22;33997;53.278;9.708;2023-09-08T02:18:06;17.40;78.40
48208;DHT22;33997;53.278;9.708;2023-09-08T02:20:32;17.30;78.50
48208;DHT22;33997;53.278;9.708;2023-09-08T02:23:03;17.20;78.60
48208;DHT22;33997;53.278;9.708;2023-09-08T02:25:28;17.20;78.80
48208;DHT22;33997;53.278;9.708;2023-09-08T02:27:54;17.00;79.70
48208;DHT22;33997;53.278;9.708;2023-09-08T02:30:19;17.00;79.70
48208;DHT22;33997;53.278;9.708;2023-09-08T02:32:45;17.00;79.40
48208;DHT22;33997;53.278;9.708;2023-09-08T02:35:11;17.10;79.40
48208;DHT22;33997;53.278;9.708;2023-09-08T02:37:36;17.00;80.00
48208;DHT22;33997;53.278;9.708;2023-09-08T02:40:02;17.00;80.10
48208;DHT22;33997;53.278;9.708;2023-09-08T02:42:29;16.90;80.10
48208;DHT22;33997;53.278;9.708;2023-09-08T02:44:54;16.90;80.20
48208;DHT22;33997;53.278;9.708;2023-09-08T02:47:19;16.80;80.10
48208;DHT22;33997;53.278;9.708;2023-09-08T02:49:45;16.80;80.50
48208;DHT22;33997;53.278;9.708;2023-09-08T02:52:10;16.90;80.60
48208;DHT22;33997;53.278;9.708;2023-09-08T02:54:36;16.70;80.60
48208;DHT22;33997;53.278;9.708;2023-09-08T02:57:01;16.70;81.10
48208;DHT22;33997;53.278;9.708;2023-09-08T02:59:27;16.60;81.50
48208;DHT22;33997;53.278;9.708;2023-09-08T03:01:52;16.50;81.50
48208;DHT22;33997;53.278;9.708;2023-09-08T03:04:18;16.50;81.60
48208;DHT22;33997;53.278;9.708;2023-09-08T03:06:43;16.50;81.90
48208;DHT22;33997;53.278;9.708;2023-09-08T03:09:09;16.40;82.30
48208;DHT22;33997;53.278;9.708;2023-09-08T03:11:34;16.30;82.50
48208;DHT22;33997;53.278;9.708;2023-09-08T03:14:00;16.10;83.10
48208;DHT22;33997;53.278;9.708;2023-09-08T03:16:25;16.00;83.50
48208;DHT22;33997;53.278;9.708;2023-09-08T03:18:51;16.00;84.00
48208;DHT22;33997;53.278;9.708;2023-09-08T03:21:16;16.00;84.00
48208;DHT22;33997;53.278;9.708;2023-09-08T03:23:44;16.00;84.40
48208;DHT22;33997;53.278;9.708;2023-09-08T03:26:10;16.00;84.30
48208;DHT22;33997;53.278;9.708;2023-09-08T03:28:37;16.00;84.10
48208;DHT22;33997;53.278;9.708;2023-09-08T03:31:03;16.00;84.10
48208;DHT22;33997;53.278;9.708;2023-09-08T03:33:30;15.90;84.40
48208;DHT22;33997;53.278;9.708;2023-09-08T03:35:55;15.90;84.60
48208;DHT22;33997;53.278;9.708;2023-09-08T03:38:21;15.90;84.50
48208;DHT22;33997;53.278;9.708;2023-09-08T03:40:47;15.90;84.60
48208;DHT22;33997;53.278;9.708;2023-09-08T03:43:12;15.90;84.70
48208;DHT22;33997;53.278;9.708;2023-09-08T03:45:38;15.90;84.70
48208;DHT22;33997;53.278;9.708;2023-09-08T03:48:04;16.00;84.40
48208;DHT22;33997;53.278;9.708;2023-09-08T03:50:29;16.00;84.20
48208;DHT22;33997;53.278;9.708;2023-09-08T03:52:55;16.10;84.10
48208;DHT22;33997;53.278;9.708;2023-09-08T03:55:21;16.20;83.90
48208;DHT22;33997;53.278;9.708;2023-09-08T03:57:46;16.20;83.70
48208;DHT22;33997;53.278;9.708;2023-09-08T04:00:13;16.10;84.10
48208;DHT22;33997;53.278;9.708;2023-09-08T04:02:44;16.20;83.80
48208;DHT22;33997;53.278;9.708;2023-09-08T04:05:10;16.30;83.60
48208;DHT22;33997;53.278;9.708;2023-09-08T04:07:36;16.30;83.40
48208;DHT22;33997;53.278;9.708;2023-09-08T04:10:02;16.10;83.80
48208;DHT22;33997;53.278;9.708;2023-09-08T04:12:28;16.00;84.10
48208;DHT22;33997;53.278;9.708;2023-09-08T04:14:53;16.10;84.30
48208;DHT22;33997;53.278;9.708;2023-09-08T04:17:19;16.00;84.50
48208;DHT22;33997;53.278;9.708;2023-09-08T04:19:44;16.10;84.20
48208;DHT22;33997;53.278;9.708;2023-09-08T04:22:10;16.10;84.30
48208;DHT22;33997;53.278;9.708;2023-09-08T04:24:36;16.00;84.50
48208;DHT22;33997;53.278;9.708;2023-09-08T04:27:02;15.80;84.80
48208;DHT22;33997;53.278;9.708;2023-09-08T04:29:27;15.70;85.30
48208;DHT22;33997;53.278;9.708;2023-09-08T04:31:53;15.70;85.40
48208;DHT22;33997;53.278;9.708;2023-09-08T04:34:18;15.70;85.60
48208;DHT22;33997;53.278;9.708;2023-09-08T04:36:44;15.80;85.60
48208;DHT22;33997;53.278;9.708;2023-09-08T04:39:09;15.70;85.50
48208;DHT22;33997;53.278;9.708;2023-09-08T04:41:37;15.70;85.90
48208;DHT22;33997;53.278;9.708;2023-09-08T04:44:03;15.70;85.80
48208;DHT22;33997;53.278;9.708;2023-09-08T04:46:29;15.60;85.80
48208;DHT22;33997;53.278;9.708;2023-09-08T04:48:54;15.60;86.00
48208;DHT22;33997;53.278;9.708;2023-09-08T04:51:20;15.70;85.80
48208;DHT22;33997;53.278;9.708;2023-09-08T04:53:45;15.70;85.70
48208;DHT22;33997;53.278;9.708;2023-09-08T04:56:13;15.80;85.60
48208;DHT22;33997;53.278;9.708;2023-09-08T04:58:38;15.80;85.90
48208;DHT22;33997;53.278;9.708;2023-09-08T05:01:04;15.70;85.80
48208;DHT22;33997;53.278;9.708;2023-09-08T05:03:30;15.70;86.20
48208;DHT22;33997;53.278;9.708;2023-09-08T05:05:56;15.70;86.10
48208;DHT22;33997;53.278;9.708;2023-09-08T05:08:22;15.70;86.20
48208;DHT22;33997;53.278;9.708;2023-09-08T05:10:47;15.60;86.20
48208;DHT22;33997;53.278;9.708;2023-09-08T05:13:13;15.60;86.40
48208;DHT22;33997;53.278;9.708;2023-09-08T05:15:39;15.80;86.00
48208;DHT22;33997;53.278;9.708;2023-09-08T05:18:07;15.70;86.10
48208;DHT22;33997;53.278;9.708;2023-09-08T05:20:33;15.80;86.20
48208;DHT22;33997;53.278;9.708;2023-09-08T05:22:58;15.80;86.20
48208;DHT22;33997;53.278;9.708;2023-09-08T05:25:24;15.90;85.90
48208;DHT22;33997;53.278;9.708;2023-09-08T05:27:49;15.90;85.70
48208;DHT22;33997;53.278;9.708;2023-09-08T05:30:15;16.00;85.70
48208;DHT22;33997;53.278;9.708;2023-09-08T05:32:40;16.10;85.30
48208;DHT22;33997;53.278;9.708;2023-09-08T05:35:06;16.10;85.30
48208;DHT22;33997;53.278;9.708;2023-09-08T05:37:31;16.20;85.10
48208;DHT22;33997;53.278;9.708;2023-09-08T05:39:57;16.20;85.30
48208;DHT22;33997;53.278;9.708;2023-09-08T05:42:22;16.10;85.40
48208;DHT22;33997;53.278;9.708;2023-09-08T05:44:48;16.20;85.30
48208;DHT22;33997;53.278;9.708;2023-09-08T05:47:14;16.20;85.70
48208;DHT22;33997;53.278;9.708;2023-09-08T05:49:39;16.30;85.30
48208;DHT22;33997;53.278;9.708;2023-09-08T05:52:05;16.30;85.10
48208;DHT22;33997;53.278;9.708;2023-09-08T05:54:30;16.40;84.80
48208;DHT22;33997;53.278;9.708;2023-09-08T05:56:56;16.50;84.70
48208;DHT22;33997;53.278;9.708;2023-09-08T05:59:22;16.60;84.30
48208;DHT22;33997;53.278;9.708;2023-09-08T06:01:47;16.60;84.30
48208;DHT22;33997;53.278;9.708;2023-09-08T06:04:13;16.70;84.30
48208;DHT22;33997;53.278;9.708;2023-09-08T06:06:38;16.70;84.20
48208;DHT22;33997;53.278;9.708;2023-09-08T06:09:05;16.80;83.90
48208;DHT22;33997;53.278;9.708;2023-09-08T06:11:31;16.90;83.40
48208;DHT22;33997;53.278;9.708;2023-09-08T06:13:57;16.90;83.90
48208;DHT22;33997;53.278;9.708;2023-09-08T06:16:25;16.90;84.10
48208;DHT22;33997;53.278;9.708;2023-09-08T06:18:50;17.00;83.50
48208;DHT22;33997;53.278;9.708;2023-09-08T06:21:16;17.10;83.50
48208;DHT22;33997;53.278;9.708;2023-09-08T06:23:41;17.20;83.00
48208;DHT22;33997;53.278;9.708;2023-09-08T06:26:06;17.40;82.60
48208;DHT22;33997;53.278;9.708;2023-09-08T06:28:32;17.30;82.90
48208;DHT22;33997;53.278;9.708;2023-09-08T06:30:57;17.50;82.50
48208;DHT22;33997;53.278;9.708;2023-09-08T06:33:23;17.60;81.90
48208;DHT22;33997;53.278;9.708;2023-09-08T06:35:49;17.60;82.40
48208;DHT22;33997;53.278;9.708;2023-09-08T06:38:14;17.60;82.50
48208;DHT22;33997;53.278;9.708;2023-09-08T06:40:40;17.70;82.50
48208;DHT22;33997;53.278;9.708;2023-09-08T06:43:05;17.80;82.00
48208;DHT22;33997;53.278;9.708;2023-09-08T06:45:31;17.80;82.30
48208;DHT22;33997;53.278;9.708;2023-09-08T06:47:56;17.90;82.40
48208;DHT22;33997;53.278;9.708;2023-09-08T06:50:23;18.00;81.80
48208;DHT22;33997;53.278;9.708;2023-09-08T06:52:52;18.00;81.80
48208;DHT22;33997;53.278;9.708;2023-09-08T06:55:17;18.00;81.50
48208;DHT22;33997;53.278;9.708;2023-09-08T06:57:43;18.10;81.20
48208;DHT22;33997;53.278;9.708;2023-09-08T07:00:09;18.20;81.50
48208;DHT22;33997;53.278;9.708;2023-09-08T07:02:37;18.20;81.90
48208;DHT22;33997;53.278;9.708;2023-09-08T07:05:03;18.30;80.80
48208;DHT22;33997;53.278;9.708;2023-09-08T07:07:36;18.40;81.10
48208;DHT22;33997;53.278;9.708;2023-09-08T07:10:03;18.50;80.50
48208;DHT22;33997;53.278;9.708;2023-09-08T07:12:29;18.50;80.90
48208;DHT22;33997;53.278;9.708;2023-09-08T07:14:54;18.70;80.00
48208;DHT22;33997;53.278;9.708;2023-09-08T07:17:20;18.70;80.80
48208;DHT22;33997;53.278;9.708;2023-09-08T07:19:45;18.80;80.10
48208;DHT22;33997;53.278;9.708;2023-09-08T07:22:11;18.90;80.20
48208;DHT22;33997;53.278;9.708;2023-09-08T07:24:36;18.90;80.10
48208;DHT22;33997;53.278;9.708;2023-09-08T07:27:02;19.00;79.40
48208;DHT22;33997;53.278;9.708;2023-09-08T07:29:28;19.10;79.30
48208;DHT22;33997;53.278;9.708;2023-09-08T07:31:53;19.00;79.80
48208;DHT22;33997;53.278;9.708;2023-09-08T07:34:19;19.10;79.90
48208;DHT22;33997;53.278;9.708;2023-09-08T07:36:44;19.10;79.70
48208;DHT22;33997;53.278;9.708;2023-09-08T07:39:09;19.40;79.40
48208;DHT22;33997;53.278;9.708;2023-09-08T07:41:35;19.40;79.80
48208;DHT22;33997;53.278;9.708;2023-09-08T07:44:01;19.50;79.30
48208;DHT22;33997;53.278;9.708;2023-09-08T07:46:27;19.60;79.50
48208;DHT22;33997;53.278;9.708;2023-09-08T07:48:52;19.60;79.90
48208;DHT22;33997;53.278;9.708;2023-09-08T07:51:18;19.80;79.10
48208;DHT22;33997;53.278;9.708;2023-09-08T07:53:43;19.90;78.80
48208;DHT22;33997;53.278;9.708;2023-09-08T07:56:09;20.10;77.90
48208;DHT22;33997;53.278;9.708;2023-09-08T07:58:34;20.30;77.50
48208;DHT22;33997;53.278;9.708;2023-09-08T08:01:00;20.50;76.70
48208;DHT22;33997;53.278;9.708;2023-09-08T08:03:25;20.70;75.80
48208;DHT22;33997;53.278;9.708;2023-09-08T08:05:51;20.90;75.70
48208;DHT22;33997;53.278;9.708;2023-09-08T08:08:16;21.00;74.60
48208;DHT22;33997;53.278;9.708;2023-09-08T08:10:42;21.20;74.40
48208;DHT22;33997;53.278;9.708;2023-09-08T08:13:07;21.40;74.40
48208;DHT22;33997;53.278;9.708;2023-09-08T08:15:37;21.60;73.50
48208;DHT22;33997;53.278;9.708;2023-09-08T08:18:05;21.90;74.30
48208;DHT22;33997;53.278;9.708;2023-09-08T08:20:30;22.10;73.00
48208;DHT22;33997;53.278;9.708;2023-09-08T08:23:02;22.30;72.10
48208;DHT22;33997;53.278;9.708;2023-09-08T08:25:28;22.50;71.60
48208;DHT22;33997;53.278;9.708;2023-09-08T08:27:54;22.70;71.60
48208;DHT22;33997;53.278;9.708;2023-09-08T08:30:20;23.00;70.60
48208;DHT22;33997;53.278;9.708;2023-09-08T08:32:45;23.10;70.70
48208;DHT22;33997;53.278;9.708;2023-09-08T08:35:11;23.30;69.50
48208;DHT22;33997;53.278;9.708;2023-09-08T08:37:39;23.50;69.50
48208;DHT22;33997;53.278;9.708;2023-09-08T08:40:05;23.80;69.50
48208;DHT22;33997;53.278;9.708;2023-09-08T08:42:32;24.00;68.80
48208;DHT22;33997;53.278;9.708;2023-09-08T08:44:59;24.00;67.40
48208;DHT22;33997;53.278;9.708;2023-09-08T08:47:27;24.20;67.80
48208;DHT22;33997;53.278;9.708;2023-09-08T08:49:56;24.40;67.50
48208;DHT22;33997;53.278;9.708;2023-09-08T08:52:24;24.40;66.40
48208;DHT22;33997;53.278;9.708;2023-09-08T08:54:50;24.60;67.30
48208;DHT22;33997;53.278;9.708;2023-09-08T08:57:15;24.60;65.50
48208;DHT22;33997;53.278;9.708;2023-09-08T08:59:41;24.90;64.90
48208;DHT22;33997;53.278;9.708;2023-09-08T09:02:09;24.90;64.30
48208;DHT22;33997;53.278;9.708;2023-09-08T09:04:37;25.10;65.90
48208;DHT22;33997;53.278;9.708;2023-09-08T09:07:05;25.20;66.00
48208;DHT22;33997;53.278;9.708;2023-09-08T09:09:31;25.50;65.40
48208;DHT22;33997;53.278;9.708;2023-09-08T09:11:57;25.50;63.90
48208;DHT22;33997;53.278;9.708;2023-09-08T09:14:23;25.80;65.60
48208;DHT22;33997;53.278;9.708;2023-09-08T09:16:49;26.00;62.30
48208;DHT22;33997;53.278;9.708;2023-09-08T09:19:22;26.10;61.20
48208;DHT22;33997;53.278;9.708;2023-09-08T09:21:53;26.20;61.30
48208;DHT22;33997;53.278;9.708;2023-09-08T09:24:39;26.30;59.90
48208;DHT22;33997;53.278;9.708;2023-09-08T09:27:10;26.40;59.80
48208;DHT22;33997;53.278;9.708;2023-09-08T09:29:49;26.50;59.40
48208;DHT22;33997;53.278;9.708;2023-09-08T09:32:16;26.50;58.10
48208;DHT22;33997;53.278;9.708;2023-09-08T09:34:52;26.40;59.20
48208;DHT22;33997;53.278;9.708;2023-09-08T09:37:18;26.50;59.20
48208;DHT22;33997;53.278;9.708;2023-09-08T09:39:48;26.80;57.30
48208;DHT22;33997;53.278;9.708;2023-09-08T09:42:15;26.80;55.50
48208;DHT22;33997;53.278;9.708;2023-09-08T09:44:40;27.20;59.00
48208;DHT22;33997;53.278;9.708;2023-09-08T09:47:06;27.10;58.20
48208;DHT22;33997;53.278;9.708;2023-09-08T09:49:42;27.40;54.30
48208;DHT22;33997;53.278;9.708;2023-09-08T09:52:07;27.60;56.20
48208;DHT22;33997;53.278;9.708;2023-09-08T09:54:33;27.20;55.70
48208;DHT22;33997;53.278;9.708;2023-09-08T09:56:59;27.40;55.40
48208;DHT22;33997;53.278;9.708;2023-09-08T09:59:26;27.60;55.90
48208;DHT22;33997;53.278;9.708;2023-09-08T10:01:52;27.70;55.20
48208;DHT22;33997;53.278;9.708;2023-09-08T10:04:18;27.70;54.40
48208;DHT22;33997;53.278;9.708;2023-09-08T10:06:45;27.70;54.70
48208;DHT22;33997;53.278;9.708;2023-09-08T10:09:10;27.90;53.70
48208;DHT22;33997;53.278;9.708;2023-09-08T10:11:47;28.10;55.70
48208;DHT22;33997;53.278;9.708;2023-09-08T10:14:15;27.80;54.10
48208;DHT22;33997;53.278;9.708;2023-09-08T10:16:43;27.80;54.60
48208;DHT22;33997;53.278;9.708;2023-09-08T10:19:10;27.60;54.00
48208;DHT22;33997;53.278;9.708;2023-09-08T10:21:41;28.00;55.20
48208;DHT22;33997;53.278;9.708;2023-09-08T10:24:15;28.00;56.20
48208;DHT22;33997;53.278;9.708;2023-09-08T10:26:46;28.30;54.00
48208;DHT22;33997;53.278;9.708;2023-09-08T10:29:13;28.20;52.80
48208;DHT22;33997;53.278;9.708;2023-09-08T10:31:39;28.00;53.30
48208;DHT22;33997;53.278;9.708;2023-09-08T10:34:06;27.90;52.90
48208;DHT22;33997;53.278;9.708;2023-09-08T10:36:34;28.30;51.30
48208;DHT22;33997;53.278;9.708;2023-09-08T10:39:28;28.40;52.20
48208;DHT22;33997;53.278;9.708;2023-09-08T10:44:55;29.00;51.90
48208;DHT22;33997;53.278;9.708;2023-09-08T10:50:19;28.80;52.10
48208;DHT22;33997;53.278;9.708;2023-09-08T10:52:46;29.00;50.20
48208;DHT22;33997;53.278;9.708;2023-09-08T10:55:36;29.30;51.10
48208;DHT22;33997;53.278;9.708;2023-09-08T10:58:03;29.70;49.70
48208;DHT22;33997;53.278;9.708;2023-09-08T11:00:43;30.00;50.00
48208;DHT22;33997;53.278;9.708;2023-09-08T11:03:08;29.90;47.00
48208;DHT22;33997;53.278;9.708;2023-09-08T11:05:34;30.20;49.20
48208;DHT22;33997;53.278;9.708;2023-09-08T11:08:00;30.00;47.20
48208;DHT22;33997;53.278;9.708;2023-09-08T11:10:27;30.30;46.80
48208;DHT22;33997;53.278;9.708;2023-09-08T11:12:54;30.30;47.10
48208;DHT22;33997;53.278;9.708;2023-09-08T11:15:20;30.50;47.20
48208;DHT22;33997;53.278;9.708;2023-09-08T11:17:45;30.50;46.30
48208;DHT22;33997;53.278;9.708;2023-09-08T11:20:16;30.20;46.60
48208;DHT22;33997;53.278;9.708;2023-09-08T11:22:41;29.80;48.00
48208;DHT22;33997;53.278;9.708;2023-09-08T11:25:09;30.10;47.40
48208;DHT22;33997;53.278;9.708;2023-09-08T11:27:38;30.50;48.30
48208;DHT22;33997;53.278;9.708;2023-09-08T11:30:06;30.60;47.00
48208;DHT22;33997;53.278;9.708;2023-09-08T11:32:33;30.90;44.30
48208;DHT22;33997;53.278;9.708;2023-09-08T11:35:04;31.20;45.10
48208;DHT22;33997;53.278;9.708;2023-09-08T11:37:30;31.30;43.60
48208;DHT22;33997;53.278;9.708;2023-09-08T11:39:56;31.50;45.40
48208;DHT22;33997;53.278;9.708;2023-09-08T11:42:21;31.30;43.70
48208;DHT22;33997;53.278;9.708;2023-09-08T11:44:48;31.10;44.60
48208;DHT22;33997;53.278;9.708;2023-09-08T11:47:14;31.70;44.10
48208;DHT22;33997;53.278;9.708;2023-09-08T11:49:41;31.70;40.60
48208;DHT22;33997;53.278;9.708;2023-09-08T11:52:07;31.90;42.60
48208;DHT22;33997;53.278;9.708;2023-09-08T11:54:34;31.60;40.60
48208;DHT22;33997;53.278;9.708;2023-09-08T11:57:01;31.60;43.50
48208;DHT22;33997;53.278;9.708;2023-09-08T11:59:30;32.20;41.20
48208;DHT22;33997;53.278;9.708;2023-09-08T12:01:56;32.00;41.20
48208;DHT22;33997;53.278;9.708;2023-09-08T12:04:23;32.20;41.10
48208;DHT22;33997;53.278;9.708;2023-09-08T12:06:50;32.40;39.40
48208;DHT22;33997;53.278;9.708;2023-09-08T12:09:16;31.80;41.30
48208;DHT22;33997;53.278;9.708;2023-09-08T12:11:42;32.50;40.60
48208;DHT22;33997;53.278;9.708;2023-09-08T12:14:12;32.50;39.60
48208;DHT22;33997;53.278;9.708;2023-09-08T12:16:38;32.40;39.00
48208;DHT22;33997;53.278;9.708;2023-09-08T12:19:04;33.30;40.20
48208;DHT22;33997;53.278;9.708;2023-09-08T12:21:30;33.70;40.30
48208;DHT22;33997;53.278;9.708;2023-09-08T12:23:57;33.90;40.00
48208;DHT22;33997;53.278;9.708;2023-09-08T12:26:25;33.10;39.60
48208;DHT22;33997;53.278;9.708;2023-09-08T12:28:50;33.00;40.00
48208;DHT22;33997;53.278;9.708;2023-09-08T12:31:17;33.20;37.80
48208;DHT22;33997;53.278;9.708;2023-09-08T12:33:43;33.60;38.60
48208;DHT22;33997;53.278;9.708;2023-09-08T12:36:17;33.70;37.90
48208;DHT22;33997;53.278;9.708;2023-09-08T12:38:52;33.00;36.30
48208;DHT22;33997;53.278;9.708;2023-09-08T12:41:18;33.40;37.00
48208;DHT22;33997;53.278;9.708;2023-09-08T12:43:44;34.30;35.70
48208;DHT22;33997;53.278;9.708;2023-09-08T12:46:10;34.30;35.10
48208;DHT22;33997;53.278;9.708;2023-09-08T12:48:35;34.70;35.50
48208;DHT22;33997;53.278;9.708;2023-09-08T12:51:01;34.70;35.30
48208;DHT22;33997;53.278;9.708;2023-09-08T12:53:29;34.90;36.50
48208;DHT22;33997;53.278;9.708;2023-09-08T12:55:55;34.90;33.60
48208;DHT22;33997;53.278;9.708;2023-09-08T12:58:20;34.90;34.20
48208;DHT22;33997;53.278;9.708;2023-09-08T13:00:46;35.00;33.40
48208;DHT22;33997;53.278;9.708;2023-09-08T13:03:11;35.20;33.70
48208;DHT22;33997;53.278;9.708;2023-09-08T13:05:37;35.50;33.00
48208;DHT22;33997;53.278;9.708;2023-09-08T13:08:04;35.90;31.80
48208;DHT22;33997;53.278;9.708;2023-09-08T13:10:29;36.00;31.20
48208;DHT22;33997;53.278;9.708;2023-09-08T13:12:55;35.70;31.90
48208;DHT22;33997;53.278;9.708;2023-09-08T13:15:20;34.90;32.90
48208;DHT22;33997;53.278;9.708;2023-09-08T13:17:46;35.40;32.70
48208;DHT22;33997;53.278;9.708;2023-09-08T13:20:11;36.20;32.20
48208;DHT22;33997;53.278;9.708;2023-09-08T13:22:37;36.00;31.10
48208;DHT22;33997;53.278;9.708;2023-09-08T13:25:03;36.40;30.50
48208;DHT22;33997;53.278;9.708;2023-09-08T13:27:29;36.60;30.90
48208;DHT22;33997;53.278;9.708;2023-09-08T13:29:54;36.00;29.00
48208;DHT22;33997;53.278;9.708;2023-09-08T13:32:20;36.40;30.30
48208;DHT22;33997;53.278;9.708;2023-09-08T13:34:47;35.40;31.00
48208;DHT22;33997;53.278;9.708;2023-09-08T13:37:13;35.90;30.50
48208;DHT22;33997;53.278;9.708;2023-09-08T13:39:39;35.80;30.20
48208;DHT22;33997;53.278;9.708;2023-09-08T13:42:04;36.50;28.40
48208;DHT22;33997;53.278;9.708;2023-09-08T13:44:30;35.90;30.80
48208;DHT22;33997;53.278;9.708;2023-09-08T13:46:55;36.60;29.20
48208;DHT22;33997;53.278;9.708;2023-09-08T13:49:21;36.90;29.20
48208;DHT22;33997;53.278;9.708;2023-09-08T13:51:48;37.10;28.60
48208;DHT22;33997;53.278;9.708;2023-09-08T13:54:14;36.20;29.50
48208;DHT22;33997;53.278;9.708;2023-09-08T13:56:41;35.90;30.30
48208;DHT22;33997;53.278;9.708;2023-09-08T13:59:07;35.40;29.90
48208;DHT22;33997;53.278;9.708;2023-09-08T14:01:34;35.70;29.60
48208;DHT22;33997;53.278;9.708;2023-09-08T14:04:00;36.20;30.20
48208;DHT22;33997;53.278;9.708;2023-09-08T14:06:27;35.70;32.10
48208;DHT22;33997;53.278;9.708;2023-09-08T14:08:53;36.10;30.20
48208;DHT22;33997;53.278;9.708;2023-09-08T14:11:18;37.20;29.40
48208;DHT22;33997;53.278;9.708;2023-09-08T14:13:44;37.30;28.80
48208;DHT22;33997;53.278;9.708;2023-09-08T14:16:11;36.80;29.20
48208;DHT22;33997;53.278;9.708;2023-09-08T14:18:36;36.70;29.40
48208;DHT22;33997;53.278;9.708;2023-09-08T14:21:02;37.40;29.50
48208;DHT22;33997;53.278;9.708;2023-09-08T14:23:28;38.10;31.20
48208;DHT22;33997;53.278;9.708;2023-09-08T14:25:54;38.00;28.50
48208;DHT22;33997;53.278;9.708;2023-09-08T14:28:19;38.40;28.80
48208;DHT22;33997;53.278;9.708;2023-09-08T14:30:46;37.90;29.30
48208;DHT22;33997;53.278;9.708;2023-09-08T14:33:11;37.50;29.20
48208;DHT22;33997;53.278;9.708;2023-09-08T14:35:44;38.70;29.10
48208;DHT22;33997;53.278;9.708;2023-09-08T14:38:12;38.30;28.50
48208;DHT22;33997;53.278;9.708;2023-09-08T14:40:38;37.10;29.10
48208;DHT22;33997;53.278;9.708;2023-09-08T14:43:03;36.90;30.50
48208;DHT22;33997;53.278;9.708;2023-09-08T14:45:29;37.70;29.10
48208;DHT22;33997;53.278;9.708;2023-09-08T14:47:54;37.60;30.50
48208;DHT22;33997;53.278;9.708;2023-09-08T14:50:20;37.70;30.00
48208;DHT22;33997;53.278;9.708;2023-09-08T14:52:45;37.90;29.30
48208;DHT22;33997;53.278;9.708;2023-09-08T14:55:11;37.90;30.00
48208;DHT22;33997;53.278;9.708;2023-09-08T14:57:37;37.80;29.30
48208;DHT22;33997;53.278;9.708;2023-09-08T15:00:05;37.70;29.40
48208;DHT22;33997;53.278;9.708;2023-09-08T15:02:32;38.50;28.50
48208;DHT22;33997;53.278;9.708;2023-09-08T15:04:57;38.40;28.20
48208;DHT22;33997;53.278;9.708;2023-09-08T15:07:22;38.30;29.60
48208;DHT22;33997;53.278;9.708;2023-09-08T15:09:48;39.20;29.40
48208;DHT22;33997;53.278;9.708;2023-09-08T15:12:13;38.40;29.60
48208;DHT22;33997;53.278;9.708;2023-09-08T15:14:39;38.30;28.20
48208;DHT22;33997;53.278;9.708;2023-09-08T15:17:05;37.90;28.30
48208;DHT22;33997;53.278;9.708;2023-09-08T15:19:31;37.40;30.70
48208;DHT22;33997;53.278;9.708;2023-09-08T15:21:58;37.90;31.30
48208;DHT22;33997;53.278;9.708;2023-09-08T15:24:23;37.40;29.70
48208;DHT22;33997;53.278;9.708;2023-09-08T15:26:49;36.90;31.30
48208;DHT22;33997;53.278;9.708;2023-09-08T15:29:15;37.10;30.50
48208;DHT22;33997;53.278;9.708;2023-09-08T15:31:41;37.80;31.60
48208;DHT22;33997;53.278;9.708;2023-09-08T15:34:06;37.50;31.20